Time;durP1;ratioP1;P1;durP2;ratioP2;P2;SDS_P1;SDS_P2;PMS_P1;PMS_P2;Temp;Humidity;BMP_temperature;BMP_pressure;BME280_temperature;BME280_humidity;BME280_pressure;Samples;Min_cycle;Max_cycle;Signal;HPM_P1;HPM_P2
2022/11/09 00:01:28;;;;;;;1.10;1.00;;;;;;;;;;5076161;28;20214;-64
2022/11/09 00:03:56;;;;;;;1.30;1.10;;;;;;;;;;5076224;28;20266;-62
2022/11/09 00:06:24;;;;;;;0.90;0.90;;;;;;;;;;5076550;28;20224;-63
2022/11/09 00:08:51;;;;;;;1.10;1.00;;;;;;;;;;5076095;28;20204;-62
2022/11/09 00:11:19;;;;;;;0.90;0.90;;;;;;;;;;5076014;28;20575;-62
2022/11/09 00:13:48;;;;;;;1.20;1.10;;;;;;;;;;5072662;28;20644;-63
2022/11/09 00:16:16;;;;;;;1.05;1.00;;;;;;;;;;5056204;28;20197;-62
2022/11/09 00:18:46;;;;;;;1.20;1.10;;;;;;;;;;5056369;28;20548;-62
2022/11/09 00:21:15;;;;;;;1.20;1.10;;;;;;;;;;5056130;28;20201;-62
2022/11/09 00:23:42;;;;;;;1.42;1.00;;;;;;;;;;5055896;28;20603;-63
2022/11/09 00:26:10;;;;;;;1.08;0.98;;;;;;;;;;5055837;28;20291;-62
2022/11/09 00:28:38;;;;;;;1.20;1.10;;;;;;;;;;5056690;28;20213;-62
2022/11/09 00:31:08;;;;;;;1.20;1.10;;;;;;;;;;5056019;28;20299;-63
2022/11/09 00:33:36;;;;;;;1.00;0.82;;;;;;;;;;5055873;28;20315;-62
2022/11/09 00:36:06;;;;;;;0.90;0.90;;;;;;;;;;5055727;28;20233;-61
2022/11/09 00:38:33;;;;;;;0.93;0.90;;;;;;;;;;5055691;28;20571;-61
2022/11/09 00:41:01;;;;;;;1.20;1.10;;;;;;;;;;5057824;28;20205;-61
2022/11/09 00:43:28;;;;;;;1.13;1.02;;;;;;;;;;5079092;28;20303;-61
2022/11/09 00:45:56;;;;;;;0.93;0.93;;;;;;;;;;5079878;28;20486;-61
2022/11/09 00:48:25;;;;;;;1.05;0.90;;;;;;;;;;5079872;28;20205;-61
2022/11/09 00:50:53;;;;;;;1.02;0.88;;;;;;;;;;5079620;28;20235;-62
2022/11/09 00:53:20;;;;;;;1.20;1.10;;;;;;;;;;5079705;28;20295;-63
2022/11/09 00:55:54;;;;;;;1.33;1.23;;;;;;;;;;5079236;28;20211;-63
2022/11/09 00:58:22;;;;;;;1.17;1.08;;;;;;;;;;5079620;28;20536;-62
2022/11/09 01:00:49;;;;;;;1.23;1.13;;;;;;;;;;5079278;28;20304;-63
2022/11/09 01:03:17;;;;;;;1.05;0.95;;;;;;;;;;5079590;28;20210;-62
2022/11/09 01:05:46;;;;;;;1.10;1.00;;;;;;;;;;5079346;28;20242;-62
2022/11/09 01:08:14;;;;;;;1.10;0.93;;;;;;;;;;5076992;28;20298;-63
2022/11/09 01:10:42;;;;;;;1.20;1.10;;;;;;;;;;5058809;28;20229;-62
2022/11/09 01:13:10;;;;;;;1.33;1.23;;;;;;;;;;5058478;28;20213;-64
2022/11/09 01:15:41;;;;;;;1.20;1.10;;;;;;;;;;5059171;28;20205;-63
2022/11/09 01:18:09;;;;;;;1.13;1.02;;;;;;;;;;5058932;28;20205;-62
2022/11/09 01:20:39;;;;;;;0.90;0.90;;;;;;;;;;5058798;28;20301;-62
2022/11/09 01:23:08;;;;;;;1.10;1.00;;;;;;;;;;5059177;28;20227;-63
2022/11/09 01:25:36;;;;;;;1.20;0.95;;;;;;;;;;5059058;28;20319;-62
2022/11/09 01:28:03;;;;;;;1.15;1.05;;;;;;;;;;5058892;28;20501;-62
2022/11/09 01:30:31;;;;;;;1.02;0.90;;;;;;;;;;5058718;28;20294;-62
2022/11/09 01:32:58;;;;;;;1.20;1.10;;;;;;;;;;5058701;28;20288;-62
2022/11/09 01:35:26;;;;;;;0.90;0.90;;;;;;;;;;5059718;28;20233;-62
2022/11/09 01:37:53;;;;;;;1.10;1.00;;;;;;;;;;5079012;28;20252;-61
2022/11/09 01:40:22;;;;;;;1.08;0.93;;;;;;;;;;5078887;28;20287;-61
2022/11/09 01:42:49;;;;;;;1.10;1.00;;;;;;;;;;5078986;28;20204;-61
2022/11/09 01:45:25;;;;;;;1.10;1.00;;;;;;;;;;5078143;28;20266;-63
2022/11/09 01:47:54;;;;;;;0.80;0.80;;;;;;;;;;5078957;28;20204;-62
2022/11/09 01:50:24;;;;;;;1.30;1.20;;;;;;;;;;5078418;28;20274;-62
2022/11/09 01:52:51;;;;;;;1.20;1.10;;;;;;;;;;5077934;28;20208;-62
2022/11/09 01:55:20;;;;;;;1.05;1.00;;;;;;;;;;5078635;28;20586;-62
2022/11/09 01:57:52;;;;;;;0.80;0.80;;;;;;;;;;5077818;28;20566;-62
2022/11/09 02:00:20;;;;;;;0.90;0.90;;;;;;;;;;5078274;28;20204;-62
2022/11/09 02:02:49;;;;;;;0.90;0.90;;;;;;;;;;5076136;28;20594;-62
2022/11/09 02:05:20;;;;;;;0.90;0.90;;;;;;;;;;5058135;28;20260;-62
2022/11/09 02:07:47;;;;;;;1.20;1.10;;;;;;;;;;5058227;28;20205;-64
2022/11/09 02:10:17;;;;;;;1.08;1.08;;;;;;;;;;5057670;28;20237;-62
2022/11/09 02:12:45;;;;;;;0.90;0.90;;;;;;;;;;5057658;28;20251;-63
2022/11/09 02:15:14;;;;;;;1.20;0.93;;;;;;;;;;5058006;28;20201;-62
2022/11/09 02:17:42;;;;;;;1.00;0.90;;;;;;;;;;5058165;28;20308;-62
2022/11/09 02:20:12;;;;;;;0.98;0.98;;;;;;;;;;5057248;28;20244;-62
2022/11/09 02:22:40;;;;;;;0.88;0.88;;;;;;;;;;5057818;28;20291;-62
2022/11/09 02:25:09;;;;;;;1.00;0.90;;;;;;;;;;5057532;28;20208;-63
2022/11/09 02:27:36;;;;;;;1.10;1.00;;;;;;;;;;5058143;28;20279;-62
2022/11/09 02:30:05;;;;;;;1.10;1.10;;;;;;;;;;5058054;28;20678;-62
2022/11/09 02:32:32;;;;;;;1.00;1.00;;;;;;;;;;5075471;28;20200;-62
2022/11/09 02:35:00;;;;;;;0.90;0.90;;;;;;;;;;5077468;28;20259;-62
2022/11/09 02:37:30;;;;;;;0.85;0.85;;;;;;;;;;5077610;28;20279;-62
2022/11/09 02:39:59;;;;;;;0.77;0.77;;;;;;;;;;5077602;28;20499;-62
2022/11/09 02:42:26;;;;;;;0.82;0.82;;;;;;;;;;5077433;28;20239;-63
2022/11/09 02:44:56;;;;;;;0.95;0.95;;;;;;;;;;5077703;28;20204;-62
2022/11/09 02:47:23;;;;;;;0.93;0.93;;;;;;;;;;5076981;28;20287;-61
2022/11/09 02:49:51;;;;;;;1.00;1.00;;;;;;;;;;5077855;28;20258;-63
2022/11/09 02:52:18;;;;;;;0.90;0.90;;;;;;;;;;5077160;28;20302;-61
2022/11/09 02:54:47;;;;;;;0.90;0.90;;;;;;;;;;5077141;28;20211;-61
2022/11/09 02:57:14;;;;;;;1.20;1.10;;;;;;;;;;5077055;28;20211;-61
2022/11/09 02:59:42;;;;;;;1.05;1.00;;;;;;;;;;5059290;28;20236;-61
2022/11/09 03:02:09;;;;;;;1.20;1.10;;;;;;;;;;5058054;28;20235;-61
2022/11/09 03:04:37;;;;;;;1.27;1.17;;;;;;;;;;5042070;28;20247;-61
2022/11/09 03:07:04;;;;;;;1.10;1.00;;;;;;;;;;5056645;28;20638;-61
2022/11/09 03:09:32;;;;;;;1.20;1.10;;;;;;;;;;5056931;28;20243;-63
2022/11/09 03:12:27;;;;;;;0.85;0.85;;;;;;;;;;5057375;28;20240;-63
2022/11/09 03:14:48;;;;;;;1.23;0.90;;;;;;;;;;5056857;28;20216;-63
2022/11/09 03:17:17;;;;;;;0.90;0.90;;;;;;;;;;5057103;28;20295;-63
2022/11/09 03:19:44;;;;;;;1.10;1.00;;;;;;;;;;5056846;28;20633;-63
2022/11/09 03:22:12;;;;;;;0.88;0.88;;;;;;;;;;5057151;28;20211;-63
2022/11/09 03:24:39;;;;;;;0.80;0.80;;;;;;;;;;5056676;28;20266;-63
2022/11/09 03:27:08;;;;;;;1.15;1.05;;;;;;;;;;5073311;28;20231;-63
2022/11/09 03:29:35;;;;;;;1.10;1.00;;;;;;;;;;5076783;28;20204;-63
2022/11/09 03:32:03;;;;;;;1.00;1.00;;;;;;;;;;5076909;28;20469;-63
2022/11/09 03:34:31;;;;;;;0.82;0.82;;;;;;;;;;5076575;28;20204;-63
2022/11/09 03:36:58;;;;;;;0.80;0.80;;;;;;;;;;5076991;28;20231;-63
2022/11/09 03:39:25;;;;;;;1.00;0.90;;;;;;;;;;5076851;28;20211;-63
2022/11/09 03:41:53;;;;;;;0.93;0.93;;;;;;;;;;5076665;28;20631;-63
2022/11/09 03:44:22;;;;;;;0.90;0.90;;;;;;;;;;5076461;28;20287;-63
2022/11/09 03:46:49;;;;;;;0.80;0.80;;;;;;;;;;5076586;28;20254;-63
2022/11/09 03:49:17;;;;;;;1.10;1.00;;;;;;;;;;5076186;28;20231;-63
2022/11/09 03:51:44;;;;;;;1.00;1.00;;;;;;;;;;5075780;28;20289;-63
2022/11/09 03:54:12;;;;;;;0.88;0.88;;;;;;;;;;5075030;28;20293;-63
2022/11/09 03:56:40;;;;;;;0.80;0.80;;;;;;;;;;5063686;28;20284;-63
2022/11/09 03:59:07;;;;;;;0.95;0.95;;;;;;;;;;5056207;28;20201;-63
2022/11/09 04:01:36;;;;;;;1.40;0.70;;;;;;;;;;5055948;28;20613;-63
2022/11/09 04:04:03;;;;;;;1.00;1.00;;;;;;;;;;5056066;28;20601;-63
2022/11/09 04:06:31;;;;;;;0.90;0.90;;;;;;;;;;5056374;28;20228;-63
2022/11/09 04:08:58;;;;;;;1.33;0.90;;;;;;;;;;5056156;28;20205;-62
2022/11/09 04:11:25;;;;;;;0.90;0.90;;;;;;;;;;5055089;28;20232;-63
2022/11/09 04:13:53;;;;;;;0.80;0.80;;;;;;;;;;5055992;28;20201;-63
2022/11/09 04:16:20;;;;;;;1.02;0.93;;;;;;;;;;5057978;28;20233;-63
2022/11/09 04:18:49;;;;;;;1.17;0.95;;;;;;;;;;5059900;28;20249;-63
2022/11/09 04:21:16;;;;;;;1.00;0.90;;;;;;;;;;5059806;28;20259;-63
2022/11/09 04:23:44;;;;;;;1.27;1.17;;;;;;;;;;5059594;28;20729;-63
2022/11/09 04:26:11;;;;;;;1.10;1.00;;;;;;;;;;5059845;28;20225;-63
2022/11/09 04:28:39;;;;;;;1.10;1.00;;;;;;;;;;5059660;28;20205;-63
2022/11/09 04:31:06;;;;;;;1.65;0.98;;;;;;;;;;5060071;28;20541;-63
2022/11/09 04:33:34;;;;;;;0.80;0.80;;;;;;;;;;5059825;28;20205;-63
2022/11/09 04:36:06;;;;;;;0.95;0.80;;;;;;;;;;5059761;28;20217;-63
2022/11/09 04:38:35;;;;;;;0.80;0.73;;;;;;;;;;5059854;28;20205;-63
2022/11/09 04:41:03;;;;;;;0.82;0.80;;;;;;;;;;5059317;28;20587;-63
2022/11/09 04:43:30;;;;;;;1.20;0.90;;;;;;;;;;5059912;28;20205;-63
2022/11/09 04:46:00;;;;;;;1.80;1.00;;;;;;;;;;5059022;28;20255;-63
2022/11/09 04:48:27;;;;;;;1.00;0.90;;;;;;;;;;5063097;28;20480;-63
2022/11/09 04:51:00;;;;;;;0.88;0.88;;;;;;;;;;5078644;28;20639;-63
2022/11/09 04:53:29;;;;;;;0.88;0.88;;;;;;;;;;5079122;28;20505;-63
2022/11/09 04:55:56;;;;;;;1.30;1.02;;;;;;;;;;5079331;28;20204;-63
2022/11/09 04:58:24;;;;;;;1.30;0.93;;;;;;;;;;5079424;28;20286;-63
2022/11/09 05:00:52;;;;;;;1.00;0.90;;;;;;;;;;5078685;28;20207;-63
2022/11/09 05:03:19;;;;;;;0.80;0.80;;;;;;;;;;5078586;28;20274;-63
2022/11/09 05:05:47;;;;;;;0.70;0.70;;;;;;;;;;5078602;28;20227;-63
2022/11/09 05:08:14;;;;;;;0.93;0.82;;;;;;;;;;5079155;28;20299;-63
2022/11/09 05:10:43;;;;;;;1.15;1.02;;;;;;;;;;5078305;28;20250;-63
2022/11/09 05:13:13;;;;;;;1.00;0.90;;;;;;;;;;5063099;28;20207;-63
2022/11/09 05:15:41;;;;;;;0.90;0.90;;;;;;;;;;5058498;28;20468;-63
2022/11/09 05:18:09;;;;;;;0.95;0.90;;;;;;;;;;5058619;28;20666;-63
2022/11/09 05:20:36;;;;;;;1.27;1.13;;;;;;;;;;5058469;28;20613;-63
2022/11/09 05:25:50;;;;;;;0.95;0.95;;;;;;;;;;5057870;28;20195;-63
2022/11/09 05:28:18;;;;;;;1.30;0.90;;;;;;;;;;5057690;28;20602;-63
2022/11/09 05:30:45;;;;;;;0.80;0.80;;;;;;;;;;5058198;28;20204;-63
2022/11/09 05:33:13;;;;;;;0.90;0.90;;;;;;;;;;5057338;28;20224;-63
2022/11/09 05:35:41;;;;;;;1.30;1.05;;;;;;;;;;5057722;28;20251;-63
2022/11/09 05:38:08;;;;;;;1.10;1.00;;;;;;;;;;5057635;28;20205;-63
2022/11/09 05:40:35;;;;;;;1.10;1.00;;;;;;;;;;5071982;28;20616;-63
2022/11/09 05:43:04;;;;;;;0.95;0.95;;;;;;;;;;5076733;28;20200;-63
2022/11/09 05:45:31;;;;;;;1.08;1.00;;;;;;;;;;5077098;28;20214;-63
2022/11/09 05:47:59;;;;;;;1.45;0.90;;;;;;;;;;5076938;28;20228;-63
2022/11/09 05:50:26;;;;;;;0.85;0.82;;;;;;;;;;5076835;28;20598;-63
2022/11/09 05:52:54;;;;;;;1.20;1.10;;;;;;;;;;5076741;28;20202;-63
2022/11/09 05:55:21;;;;;;;0.98;0.95;;;;;;;;;;5068707;28;20682;-63
2022/11/09 05:57:49;;;;;;;0.90;0.90;;;;;;;;;;5068177;28;20200;-63
2022/11/09 06:00:18;;;;;;;1.55;0.90;;;;;;;;;;5075653;28;20204;-63
2022/11/09 06:02:45;;;;;;;1.17;0.98;;;;;;;;;;5054735;28;20201;-63
2022/11/09 06:05:13;;;;;;;1.63;1.10;;;;;;;;;;5055776;28;20201;-63
2022/11/09 06:07:40;;;;;;;1.10;1.00;;;;;;;;;;5052409;28;20220;-63
2022/11/09 06:10:08;;;;;;;0.98;0.90;;;;;;;;;;5055092;28;20236;-63
2022/11/09 06:12:35;;;;;;;1.80;1.10;;;;;;;;;;5054521;28;20201;-63
2022/11/09 06:15:03;;;;;;;2.55;1.48;;;;;;;;;;5053646;28;20211;-63
2022/11/09 06:17:32;;;;;;;3.38;1.70;;;;;;;;;;5054722;28;20200;-63
2022/11/09 06:19:59;;;;;;;3.40;1.98;;;;;;;;;;5053349;28;20201;-63
2022/11/09 06:22:27;;;;;;;6.68;2.35;;;;;;;;;;5054699;28;20204;-63
2022/11/09 06:24:54;;;;;;;5.82;2.45;;;;;;;;;;5052771;28;20644;-64
2022/11/09 06:27:22;;;;;;;3.75;2.47;;;;;;;;;;5054550;28;20231;-63
2022/11/09 06:29:49;;;;;;;7.50;3.17;;;;;;;;;;5055261;28;20260;-63
2022/11/09 06:32:17;;;;;;;5.75;2.85;;;;;;;;;;5054248;28;20740;-63
2022/11/09 06:34:48;;;;;;;8.27;3.72;;;;;;;;;;5062441;28;20201;-63
2022/11/09 06:37:16;;;;;;;6.78;3.60;;;;;;;;;;5074555;28;20196;-63
2022/11/09 06:39:44;;;;;;;7.38;3.85;;;;;;;;;;5073526;28;20204;-63
2022/11/09 06:42:11;;;;;;;7.05;3.33;;;;;;;;;;5073320;28;20208;-63
2022/11/09 06:44:39;;;;;;;8.68;3.95;;;;;;;;;;5074618;28;20613;-63
2022/11/09 06:47:06;;;;;;;7.57;3.90;;;;;;;;;;5073445;28;20250;-63
2022/11/09 06:49:33;;;;;;;6.28;3.78;;;;;;;;;;5073899;28;20200;-63
2022/11/09 06:52:02;;;;;;;8.68;3.80;;;;;;;;;;5072755;28;20200;-63
2022/11/09 06:54:29;;;;;;;9.35;4.30;;;;;;;;;;5073912;28;20211;-63
2022/11/09 06:56:57;;;;;;;6.38;3.88;;;;;;;;;;5073792;28;20215;-63
2022/11/09 06:59:24;;;;;;;7.47;3.75;;;;;;;;;;5073965;28;20203;-63
2022/11/09 07:01:51;;;;;;;7.85;3.97;;;;;;;;;;5072774;28;20692;-63
2022/11/09 07:04:19;;;;;;;7.75;3.80;;;;;;;;;;5073933;28;20269;-63
2022/11/09 07:06:46;;;;;;;10.65;4.35;;;;;;;;;;5073411;28;20227;-63
2022/11/09 07:09:15;;;;;;;7.80;4.07;;;;;;;;;;5074200;28;20196;-63
2022/11/09 07:11:42;;;;;;;9.45;4.30;;;;;;;;;;5073547;28;20512;-63
2022/11/09 07:14:09;;;;;;;8.60;4.20;;;;;;;;;;5073741;28;20223;-63
2022/11/09 07:16:37;;;;;;;11.77;4.15;;;;;;;;;;5074117;28;20200;-63
2022/11/09 07:19:04;;;;;;;8.48;4.53;;;;;;;;;;5073879;28;20265;-63
2022/11/09 07:21:32;;;;;;;9.95;4.07;;;;;;;;;;5074273;28;20231;-63
2022/11/09 07:23:59;;;;;;;9.45;4.32;;;;;;;;;;5075329;28;20208;-63
2022/11/09 07:26:28;;;;;;;8.25;4.03;;;;;;;;;;5074358;28;20196;-63
2022/11/09 07:28:55;;;;;;;7.97;4.07;;;;;;;;;;5071731;28;20521;-63
2022/11/09 07:31:23;;;;;;;8.05;3.85;;;;;;;;;;5055082;28;20585;-63
2022/11/09 07:33:50;;;;;;;8.32;4.47;;;;;;;;;;5053981;28;20208;-63
2022/11/09 07:36:17;;;;;;;8.82;4.22;;;;;;;;;;5054509;28;20550;-63
2022/11/09 07:38:45;;;;;;;6.57;4.25;;;;;;;;;;5054387;28;20567;-63
2022/11/09 07:41:12;;;;;;;8.23;4.78;;;;;;;;;;5054631;28;20597;-63
2022/11/09 07:43:41;;;;;;;8.52;4.55;;;;;;;;;;5054801;28;20208;-63
2022/11/09 07:46:08;;;;;;;8.38;4.28;;;;;;;;;;5074577;28;20511;-63
2022/11/09 07:48:36;;;;;;;8.70;4.05;;;;;;;;;;5073667;28;20704;-63
2022/11/09 07:51:03;;;;;;;6.75;4.22;;;;;;;;;;5075964;28;20479;-63
2022/11/09 07:53:31;;;;;;;8.57;4.30;;;;;;;;;;5078084;28;20204;-63
2022/11/09 07:55:58;;;;;;;8.27;4.00;;;;;;;;;;5077860;28;20204;-63
2022/11/09 07:58:26;;;;;;;7.70;4.03;;;;;;;;;;5064373;28;20223;-63
2022/11/09 08:00:55;;;;;;;8.48;4.15;;;;;;;;;;5050073;28;20208;-63
2022/11/09 08:03:22;;;;;;;6.68;4.20;;;;;;;;;;5058196;28;20215;-63
2022/11/09 08:05:50;;;;;;;5.85;3.85;;;;;;;;;;5057720;28;20209;-63
2022/11/09 08:08:17;;;;;;;9.07;4.32;;;;;;;;;;5057661;28;20649;-63
2022/11/09 08:10:51;;;;;;;10.50;4.32;;;;;;;;;;5057464;28;20239;-63
2022/11/09 08:13:18;;;;;;;5.05;3.30;;;;;;;;;;5058727;28;20295;-63
2022/11/09 08:15:46;;;;;;;8.00;4.15;;;;;;;;;;5058711;28;20205;-63
2022/11/09 08:18:16;;;;;;;6.38;3.90;;;;;;;;;;5057910;28;20308;-63
2022/11/09 08:20:44;;;;;;;6.28;3.78;;;;;;;;;;5057981;28;20204;-63
2022/11/09 08:23:12;;;;;;;6.28;3.88;;;;;;;;;;5058256;28;20227;-64
2022/11/09 08:25:39;;;;;;;4.22;3.50;;;;;;;;;;5058793;28;20599;-63
2022/11/09 08:28:07;;;;;;;5.63;3.75;;;;;;;;;;5073228;28;20247;-63
2022/11/09 08:30:34;;;;;;;5.45;3.25;;;;;;;;;;5078249;28;20211;-63
2022/11/09 08:33:03;;;;;;;5.20;3.50;;;;;;;;;;5077717;28;20204;-63
2022/11/09 08:35:31;;;;;;;5.88;3.85;;;;;;;;;;5077397;28;20641;-63
2022/11/09 08:38:01;;;;;;;5.78;3.50;;;;;;;;;;5078081;28;20197;-63
2022/11/09 08:40:28;;;;;;;5.55;3.38;;;;;;;;;;5069694;28;20597;-63
2022/11/09 08:42:56;;;;;;;5.15;3.35;;;;;;;;;;5077355;28;20291;-63
2022/11/09 08:45:23;;;;;;;4.93;3.42;;;;;;;;;;5077022;28;20299;-63
2022/11/09 08:47:57;;;;;;;4.90;3.38;;;;;;;;;;5076995;28;20629;-63
2022/11/09 08:50:25;;;;;;;4.90;2.90;;;;;;;;;;5077562;28;20196;-63
2022/11/09 08:52:53;;;;;;;5.82;3.63;;;;;;;;;;5077520;28;20215;-63
2022/11/09 08:55:21;;;;;;;5.22;3.38;;;;;;;;;;5069807;28;20632;-63
2022/11/09 08:57:49;;;;;;;4.22;3.13;;;;;;;;;;5048271;22;20237;-64
2022/11/09 09:00:16;;;;;;;4.68;2.95;;;;;;;;;;5038496;28;20205;-64
2022/11/09 09:02:44;;;;;;;4.18;2.90;;;;;;;;;;5037418;28;20209;-64
2022/11/09 09:05:11;;;;;;;4.35;3.20;;;;;;;;;;5038320;28;20674;-64
2022/11/09 09:07:39;;;;;;;3.83;3.00;;;;;;;;;;5038315;28;20225;-64
2022/11/09 09:10:08;;;;;;;4.18;2.85;;;;;;;;;;5038715;28;20212;-64
2022/11/09 09:12:35;;;;;;;4.00;3.00;;;;;;;;;;5038756;28;20209;-63
2022/11/09 09:15:03;;;;;;;3.45;2.80;;;;;;;;;;5051585;28;20205;-63
2022/11/09 09:17:30;;;;;;;4.80;2.88;;;;;;;;;;5058099;28;20208;-63
2022/11/09 09:19:58;;;;;;;4.20;3.00;;;;;;;;;;5057734;28;20209;-63
2022/11/09 09:22:25;;;;;;;3.90;2.80;;;;;;;;;;5056952;28;20674;-64
2022/11/09 09:24:53;;;;;;;4.45;2.72;;;;;;;;;;5056793;28;20205;-64
2022/11/09 09:27:21;;;;;;;4.00;2.78;;;;;;;;;;5037684;28;20197;-65
2022/11/09 09:29:49;;;;;;;3.38;2.58;;;;;;;;;;5036489;28;20244;-64
2022/11/09 09:32:16;;;;;;;3.38;2.50;;;;;;;;;;5036860;28;20205;-64
2022/11/09 09:34:43;;;;;;;3.20;2.55;;;;;;;;;;5035503;28;20209;-64
2022/11/09 09:37:11;;;;;;;2.70;2.47;;;;;;;;;;5051925;28;20201;-64
2022/11/09 09:39:38;;;;;;;3.17;2.75;;;;;;;;;;5038423;28;20202;-64
2022/11/09 09:42:07;;;;;;;4.57;2.50;;;;;;;;;;5036680;28;20212;-64
2022/11/09 09:44:40;;;;;;;2.72;2.30;;;;;;;;;;5036207;28;20213;-64
2022/11/09 09:47:11;;;;;;;4.13;2.75;;;;;;;;;;5050497;28;20616;-64
2022/11/09 09:49:40;;;;;;;3.20;2.47;;;;;;;;;;5055627;28;20207;-64
2022/11/09 09:52:13;;;;;;;2.58;2.28;;;;;;;;;;5055497;28;20201;-64
2022/11/09 09:54:41;;;;;;;3.72;2.78;;;;;;;;;;5056502;28;20224;-64
2022/11/09 09:57:14;;;;;;;3.00;2.42;;;;;;;;;;5039996;28;20209;-64
2022/11/09 09:59:43;;;;;;;4.03;2.72;;;;;;;;;;5015941;28;20210;-64
2022/11/09 10:02:17;;;;;;;3.20;2.83;;;;;;;;;;5015378;28;20294;-64
2022/11/09 10:04:45;;;;;;;3.70;2.20;;;;;;;;;;5016147;28;20217;-65
2022/11/09 10:07:14;;;;;;;2.90;2.10;;;;;;;;;;5031070;28;20215;-64
2022/11/09 10:09:50;;;;;;;2.47;2.20;;;;;;;;;;5035456;28;20229;-64
2022/11/09 10:12:22;;;;;;;3.45;2.58;;;;;;;;;;5035553;28;20212;-64
2022/11/09 10:14:57;;;;;;;2.75;2.55;;;;;;;;;;5035513;28;20201;-64
2022/11/09 10:17:31;;;;;;;2.40;2.20;;;;;;;;;;5018286;28;20198;-64
2022/11/09 10:20:04;;;;;;;2.72;2.10;;;;;;;;;;5015849;28;20276;-65
2022/11/09 10:22:35;;;;;;;3.28;2.10;;;;;;;;;;5016052;28;20280;-64
2022/11/09 10:25:07;;;;;;;2.22;2.03;;;;;;;;;;5016105;28;20206;-63
2022/11/09 10:27:35;;;;;;;3.28;2.20;;;;;;;;;;5033181;28;20202;-63
2022/11/09 10:30:08;;;;;;;3.25;2.10;;;;;;;;;;5034729;28;20230;-63
2022/11/09 10:32:36;;;;;;;2.38;2.00;;;;;;;;;;5034977;28;20208;-63
2022/11/09 10:35:08;;;;;;;2.55;2.20;;;;;;;;;;5036132;28;20288;-64
2022/11/09 10:37:38;;;;;;;2.60;1.98;;;;;;;;;;5016490;28;20198;-65
2022/11/09 10:40:14;;;;;;;3.22;2.05;;;;;;;;;;5015311;28;20605;-64
2022/11/09 10:42:43;;;;;;;2.20;1.90;;;;;;;;;;5014457;28;20202;-64
2022/11/09 10:45:18;;;;;;;2.53;1.95;;;;;;;;;;5015177;28;20208;-64
2022/11/09 10:47:49;;;;;;;2.50;2.08;;;;;;;;;;5030173;28;20197;-63
2022/11/09 10:50:22;;;;;;;4.68;2.13;;;;;;;;;;5014620;28;20206;-64
2022/11/09 10:52:50;;;;;;;2.65;2.03;;;;;;;;;;5014331;28;20234;-64
2022/11/09 10:55:22;;;;;;;1.88;1.77;;;;;;;;;;5013577;28;20206;-64
2022/11/09 10:57:57;;;;;;;3.00;1.95;;;;;;;;;;5019352;28;20229;-64
2022/11/09 11:00:26;;;;;;;2.10;1.65;;;;;;;;;;5033448;28;20586;-64
2022/11/09 11:02:54;;;;;;;1.92;1.75;;;;;;;;;;5036506;28;20215;-64
2022/11/09 11:05:24;;;;;;;2.30;1.85;;;;;;;;;;5054194;28;20213;-64
2022/11/09 11:07:51;;;;;;;1.88;1.73;;;;;;;;;;5054123;28;20632;-64
2022/11/09 11:10:20;;;;;;;1.67;1.58;;;;;;;;;;5053657;28;20232;-64
2022/11/09 11:12:53;;;;;;;2.83;1.60;;;;;;;;;;5050694;28;20201;-64
2022/11/09 11:15:24;;;;;;;1.77;1.67;;;;;;;;;;5055122;28;20522;-64
2022/11/09 11:18:00;;;;;;;2.60;1.88;;;;;;;;;;5054016;28;20216;-64
2022/11/09 11:20:29;;;;;;;2.63;1.60;;;;;;;;;;5054046;28;20200;-63
2022/11/09 11:23:11;;;;;;;1.80;1.70;;;;;;;;;;5052581;28;20197;-63
2022/11/09 11:25:41;;;;;;;2.13;1.55;;;;;;;;;;5033278;28;20606;-63
2022/11/09 11:28:16;;;;;;;1.45;1.35;;;;;;;;;;5034250;28;20213;-63
2022/11/09 11:30:43;;;;;;;2.10;1.60;;;;;;;;;;5034680;28;20507;-63
2022/11/09 11:33:14;;;;;;;1.73;1.40;;;;;;;;;;5036590;28;20189;-63
2022/11/09 11:35:44;;;;;;;1.92;1.65;;;;;;;;;;5053219;28;20197;-63
2022/11/09 11:38:18;;;;;;;2.20;1.55;;;;;;;;;;5053748;28;20204;-63
2022/11/09 11:40:51;;;;;;;1.73;1.50;;;;;;;;;;5053093;28;20205;-64
2022/11/09 11:43:26;;;;;;;1.70;1.48;;;;;;;;;;5048404;28;20289;-64
2022/11/09 11:45:58;;;;;;;1.75;1.48;;;;;;;;;;5032469;28;20205;-64
2022/11/09 11:48:33;;;;;;;1.30;1.20;;;;;;;;;;5033106;28;20251;-64
2022/11/09 11:51:03;;;;;;;1.65;1.55;;;;;;;;;;5033178;28;20213;-64
2022/11/09 11:53:41;;;;;;;1.50;1.40;;;;;;;;;;5038315;28;20225;-64
2022/11/09 11:56:16;;;;;;;1.83;1.50;;;;;;;;;;5052460;28;20200;-64
2022/11/09 11:58:49;;;;;;;2.00;1.55;;;;;;;;;;5052728;28;20644;-63
2022/11/09 12:01:25;;;;;;;1.50;1.40;;;;;;;;;;5053606;28;20196;-63
2022/11/09 12:04:01;;;;;;;1.80;1.70;;;;;;;;;;5048787;28;20204;-63
2022/11/09 12:06:36;;;;;;;1.65;1.35;;;;;;;;;;5040851;28;20193;-63
2022/11/09 12:09:08;;;;;;;1.60;1.40;;;;;;;;;;5053110;28;20220;-63
2022/11/09 12:11:42;;;;;;;1.50;1.35;;;;;;;;;;5052643;28;20243;-63
2022/11/09 12:14:17;;;;;;;1.50;1.40;;;;;;;;;;5033648;28;20204;-63
2022/11/09 12:16:49;;;;;;;1.60;1.50;;;;;;;;;;5033958;28;20215;-63
2022/11/09 12:19:30;;;;;;;1.40;1.30;;;;;;;;;;5033139;28;20632;-63
2022/11/09 12:22:04;;;;;;;1.50;1.40;;;;;;;;;;5036204;28;20193;-63
2022/11/09 12:24:37;;;;;;;1.48;1.38;;;;;;;;;;5051730;28;20210;-63
2022/11/09 12:27:10;;;;;;;1.45;1.27;;;;;;;;;;5052401;28;20664;-63
2022/11/09 12:29:40;;;;;;;1.55;1.45;;;;;;;;;;5053483;28;20304;-63
2022/11/09 12:32:13;;;;;;;1.50;1.40;;;;;;;;;;5047609;28;20198;-63
2022/11/09 12:34:45;;;;;;;1.40;1.30;;;;;;;;;;5032590;28;20201;-63
2022/11/09 12:37:14;;;;;;;1.95;1.40;;;;;;;;;;5033293;28;20206;-63
2022/11/09 12:39:42;;;;;;;1.50;1.40;;;;;;;;;;5035218;28;20212;-63
2022/11/09 12:42:12;;;;;;;1.42;1.33;;;;;;;;;;5039618;28;20201;-63
2022/11/09 12:44:43;;;;;;;1.65;1.50;;;;;;;;;;5055552;28;20205;-63
2022/11/09 12:47:14;;;;;;;1.40;1.30;;;;;;;;;;5055218;28;20361;-63
2022/11/09 12:49:44;;;;;;;1.25;1.15;;;;;;;;;;5055522;28;20331;-63
2022/11/09 12:52:12;;;;;;;1.40;1.30;;;;;;;;;;5050446;28;20509;-63
2022/11/09 12:54:42;;;;;;;1.38;1.27;;;;;;;;;;5035359;28;20481;-63
2022/11/09 12:57:10;;;;;;;1.52;1.40;;;;;;;;;;5035515;28;20213;-63
2022/11/09 12:59:46;;;;;;;1.58;1.48;;;;;;;;;;5035391;28;20501;-63
2022/11/09 13:02:21;;;;;;;1.30;1.20;;;;;;;;;;5035521;28;20194;-63
2022/11/09 13:04:57;;;;;;;1.27;1.17;;;;;;;;;;5035087;28;20201;-63
2022/11/09 13:07:32;;;;;;;1.50;1.40;;;;;;;;;;5036176;28;20203;-63
2022/11/09 13:10:00;;;;;;;1.38;1.27;;;;;;;;;;5036266;28;20221;-63
2022/11/09 13:12:31;;;;;;;1.30;1.20;;;;;;;;;;5035821;28;20212;-63
2022/11/09 13:15:12;;;;;;;1.50;1.40;;;;;;;;;;5035705;28;20600;-63
2022/11/09 13:18:01;;;;;;;1.35;1.25;;;;;;;;;;5036124;28;20211;-63
2022/11/09 13:20:40;;;;;;;1.45;1.35;;;;;;;;;;5035058;28;20205;-63
2022/11/09 13:23:22;;;;;;;1.08;1.00;;;;;;;;;;5034096;28;20316;-63
2022/11/09 13:25:51;;;;;;;1.25;1.15;;;;;;;;;;5035186;28;20205;-63
2022/11/09 13:28:37;;;;;;;1.45;1.35;;;;;;;;;;5035085;28;20216;-63
2022/11/09 13:31:05;;;;;;;1.38;1.27;;;;;;;;;;5035206;28;20197;-63
2022/11/09 13:33:33;;;;;;;1.30;1.10;;;;;;;;;;5035012;28;20201;-63
2022/11/09 13:36:14;;;;;;;1.40;1.30;;;;;;;;;;5034500;28;20280;-63
2022/11/09 13:38:42;;;;;;;1.27;1.17;;;;;;;;;;5034485;28;20209;-63
2022/11/09 13:41:24;;;;;;;1.30;1.20;;;;;;;;;;5033966;28;20212;-63
2022/11/09 13:44:08;;;;;;;1.30;1.17;;;;;;;;;;5017965;28;20206;-63
2022/11/09 13:46:38;;;;;;;1.42;1.33;;;;;;;;;;5034970;28;20202;-63
2022/11/09 13:49:33;;;;;;;1.27;1.00;;;;;;;;;;5033685;28;20756;-63
2022/11/09 13:52:01;;;;;;;1.20;1.10;;;;;;;;;;5034262;28;20201;-63
2022/11/09 13:54:30;;;;;;;1.00;0.90;;;;;;;;;;5034517;28;20217;-63
2022/11/09 13:56:58;;;;;;;1.17;1.13;;;;;;;;;;5034291;28;20212;-63
2022/11/09 13:59:27;;;;;;;1.20;1.10;;;;;;;;;;5047553;28;20233;-63
2022/11/09 14:01:55;;;;;;;1.17;1.08;;;;;;;;;;5035071;28;20213;-63
2022/11/09 14:04:24;;;;;;;1.42;1.33;;;;;;;;;;5034221;28;20201;-63
2022/11/09 14:06:56;;;;;;;1.20;1.10;;;;;;;;;;5033823;28;20306;-63
2022/11/09 14:09:25;;;;;;;1.00;1.00;;;;;;;;;;5038170;28;20216;-63
2022/11/09 14:12:10;;;;;;;1.00;1.00;;;;;;;;;;5054267;28;20197;-63
2022/11/09 14:14:58;;;;;;;1.20;1.10;;;;;;;;;;5053645;28;20205;-63
2022/11/09 14:17:30;;;;;;;1.50;1.40;;;;;;;;;;5048022;28;20299;-63
2022/11/09 14:20:03;;;;;;;0.90;0.90;;;;;;;;;;5044810;28;20194;-63
2022/11/09 14:22:32;;;;;;;1.20;1.10;;;;;;;;;;5034060;28;20288;-63
2022/11/09 14:25:04;;;;;;;1.13;1.02;;;;;;;;;;5033503;28;20198;-63
2022/11/09 14:27:31;;;;;;;1.00;0.95;;;;;;;;;;5033795;28;20205;-63
2022/11/09 14:30:01;;;;;;;1.20;1.10;;;;;;;;;;5041682;28;20224;-63
2022/11/09 14:32:30;;;;;;;1.00;1.00;;;;;;;;;;5052966;28;20215;-63
2022/11/09 14:35:20;;;;;;;1.20;1.10;;;;;;;;;;5052825;28;20236;-63
2022/11/09 14:37:48;;;;;;;1.25;1.17;;;;;;;;;;5052972;28;20215;-63
2022/11/09 14:40:22;;;;;;;1.17;1.08;;;;;;;;;;5041659;28;20202;-63
2022/11/09 14:42:51;;;;;;;1.20;1.10;;;;;;;;;;5033325;28;20204;-63
2022/11/09 14:45:18;;;;;;;1.10;1.00;;;;;;;;;;5032890;28;20213;-63
2022/11/09 14:47:47;;;;;;;1.20;1.10;;;;;;;;;;5034465;28;20205;-63
2022/11/09 14:50:17;;;;;;;0.98;0.98;;;;;;;;;;5044823;28;20231;-63
2022/11/09 14:52:45;;;;;;;0.88;0.88;;;;;;;;;;5053995;28;20620;-63
2022/11/09 14:55:13;;;;;;;1.20;1.10;;;;;;;;;;5053415;28;20240;-63
2022/11/09 14:57:42;;;;;;;1.05;1.02;;;;;;;;;;5052420;28;20584;-63
2022/11/09 15:00:22;;;;;;;2.00;1.20;;;;;;;;;;5042881;28;20193;-63